Time;durP1;ratioP1;P1;durP2;ratioP2;P2;SDS_P1;SDS_P2;PMS_P1;PMS_P2;Temp;Humidity;BMP_temperature;BMP_pressure;BME280_temperature;BME280_humidity;BME280_pressure;Samples;Min_cycle;Max_cycle;Signal;HPM_P1;HPM_P2
2022/05/10 00:02:13;;;;;;;4.75;2.47;;;;;;;;;;5094698;27;20425;-93
2022/05/10 00:04:42;;;;;;;7.57;2.22;;;;;;;;;;5103418;27;20055;-93
2022/05/10 00:07:10;;;;;;;9.63;2.40;;;;;;;;;;5118983;27;20093;-93
2022/05/10 00:09:55;;;;;;;8.93;2.55;;;;;;;;;;5103168;27;20051;-93
2022/05/10 00:12:24;;;;;;;7.63;2.60;;;;;;;;;;5074163;28;20645;-93
2022/05/10 00:14:52;;;;;;;6.15;2.40;;;;;;;;;;5093945;28;20143;-93
2022/05/10 00:17:27;;;;;;;8.88;2.30;;;;;;;;;;5100713;27;20135;-93
2022/05/10 00:19:56;;;;;;;5.88;2.17;;;;;;;;;;5059377;27;20134;-93
2022/05/10 00:22:24;;;;;;;4.18;2.00;;;;;;;;;;5056141;28;20052;-93
2022/05/10 00:24:52;;;;;;;5.22;2.22;;;;;;;;;;5080076;27;20055;-93
2022/05/10 00:27:20;;;;;;;5.28;2.40;;;;;;;;;;5077645;27;20048;-93
2022/05/10 00:29:50;;;;;;;8.05;2.40;;;;;;;;;;5103512;28;20051;-93
2022/05/10 00:32:18;;;;;;;7.93;2.67;;;;;;;;;;5062132;27;20047;-93
2022/05/10 00:34:50;;;;;;;4.40;2.22;;;;;;;;;;5088429;28;20617;-93
2022/05/10 00:37:20;;;;;;;7.00;2.55;;;;;;;;;;5083731;28;20146;-93
2022/05/10 00:39:48;;;;;;;6.40;2.40;;;;;;;;;;5089103;27;20101;-93
2022/05/10 00:42:22;;;;;;;5.05;2.13;;;;;;;;;;5099190;27;20094;-93
2022/05/10 00:44:56;;;;;;;6.55;2.75;;;;;;;;;;5074431;27;20849;-93
2022/05/10 00:48:04;;;;;;;5.75;2.33;;;;;;;;;;5118883;27;20117;-93
2022/05/10 00:51:52;;;;;;;4.78;2.20;;;;;;;;;;5059072;28;20050;-93
2022/05/10 00:54:36;;;;;;;4.97;2.10;;;;;;;;;;5046822;28;20673;-93
2022/05/10 00:57:31;;;;;;;5.95;2.13;;;;;;;;;;5021218;28;20044;-93
2022/05/10 01:00:03;;;;;;;6.65;2.60;;;;;;;;;;5035410;28;20136;-93
2022/05/10 01:03:09;;;;;;;5.85;2.30;;;;;;;;;;5027997;28;20040;-93
2022/05/10 01:05:43;;;;;;;5.13;2.53;;;;;;;;;;5016568;28;20946;-93
2022/05/10 01:08:41;;;;;;;10.10;2.65;;;;;;;;;;5053895;28;20075;-93
2022/05/10 01:11:27;;;;;;;8.27;2.28;;;;;;;;;;5019257;28;20500;-93
2022/05/10 01:14:04;;;;;;;5.47;2.40;;;;;;;;;;5033300;28;20057;-93
2022/05/10 01:16:32;;;;;;;6.07;2.60;;;;;;;;;;5028180;28;20048;-93
2022/05/10 01:19:22;;;;;;;7.32;2.63;;;;;;;;;;5038262;28;20072;-93
2022/05/10 01:22:08;;;;;;;4.75;2.40;;;;;;;;;;5040232;28;20044;-93
2022/05/10 01:24:46;;;;;;;4.82;2.38;;;;;;;;;;5102837;27;20055;-93
2022/05/10 01:27:31;;;;;;;5.30;2.60;;;;;;;;;;5091922;28;21017;-93
2022/05/10 01:30:03;;;;;;;5.55;2.70;;;;;;;;;;5060366;28;20060;-93
2022/05/10 01:35:44;;;;;;;8.57;3.95;;;;;;;;;;5071730;28;20055;-93
2022/05/10 01:38:28;;;;;;;6.90;2.60;;;;;;;;;;5092734;28;20074;-93
2022/05/10 01:41:17;;;;;;;6.93;2.60;;;;;;;;;;5087067;28;20063;-93
2022/05/10 01:44:03;;;;;;;3.95;2.40;;;;;;;;;;5098588;27;20590;-93
2022/05/10 01:46:31;;;;;;;7.63;3.03;;;;;;;;;;5111622;27;20043;-92
2022/05/10 01:49:27;;;;;;;11.43;2.88;;;;;;;;;;5073352;28;20501;-93
2022/05/10 01:53:13;;;;;;;6.75;2.42;;;;;;;;;;4617645;27;15049662;-84
2022/05/10 01:56:06;;;;;;;6.20;2.38;;;;;;;;;;5139266;27;20450;-84
2022/05/10 01:58:49;;;;;;;6.55;2.97;;;;;;;;;;5118273;27;20074;-84
2022/05/10 02:01:39;;;;;;;7.28;2.92;;;;;;;;;;5122179;27;20049;-84
2022/05/10 02:05:23;;;;;;;5.40;2.92;;;;;;;;;;5126891;27;20069;-84
2022/05/10 02:10:12;;;;;;;5.60;2.83;;;;;;;;;;5035714;28;20045;-84
2022/05/10 02:13:21;;;;;;;8.85;2.55;;;;;;;;;;4996358;28;20108;-84
2022/05/10 02:16:22;;;;;;;7.30;2.88;;;;;;;;;;4980832;28;20089;-84
2022/05/10 02:19:36;;;;;;;4.80;2.30;;;;;;;;;;4984629;28;20060;-84
2022/05/10 02:22:33;;;;;;;6.72;2.80;;;;;;;;;;4966829;28;20066;-85
2022/05/10 02:25:33;;;;;;;7.70;2.90;;;;;;;;;;4996160;28;20527;-84
2022/05/10 02:28:24;;;;;;;6.22;2.53;;;;;;;;;;4965134;28;20142;-84
2022/05/10 02:31:12;;;;;;;5.93;2.80;;;;;;;;;;4995236;28;20050;-84
2022/05/10 02:33:55;;;;;;;8.43;2.63;;;;;;;;;;4995264;28;20058;-84
2022/05/10 19:36:29;;;;;;;7.05;3.58;;;;;;;;;;4812442;29;20254;-86
2022/05/10 19:41:09;;;;;;;8.05;4.40;;;;;;;;;;4812661;29;20047;-86
2022/05/10 19:45:52;;;;;;;7.70;4.28;;;;;;;;;;4741552;30;20056;-86
2022/05/10 19:50:32;;;;;;;8.40;3.58;;;;;;;;;;4717220;30;20284;-86
2022/05/10 19:55:12;;;;;;;12.95;5.07;;;;;;;;;;4654390;30;20102;-87
2022/05/10 20:09:12;;;;;;;13.27;4.68;;;;;;;;;;4613055;30;20067;-87
2022/05/10 20:36:28;;;;;;;9.65;4.82;;;;;;;;;;4612489;30;20253;-86
2022/05/10 20:41:08;;;;;;;7.38;5.00;;;;;;;;;;4691393;30;20054;-86
2022/05/10 20:44:41;;;;;;;8.35;4.88;;;;;;;;;;4693245;30;20563;-87
2022/05/10 20:49:41;;;;;;;8.63;4.63;;;;;;;;;;4748566;30;20051;-87
2022/05/10 20:54:31;;;;;;;12.98;4.93;;;;;;;;;;4806115;29;20057;-86
2022/05/10 20:59:21;;;;;;;12.43;6.13;;;;;;;;;;4795005;29;20055;-86
2022/05/10 21:09:08;;;;;;;9.10;5.75;;;;;;;;;;4830963;29;20844;-86
2022/05/10 21:28:48;;;;;;;10.90;5.22;;;;;;;;;;4756083;30;20060;-88
2022/05/10 21:38:17;;;;;;;10.30;4.90;;;;;;;;;;4806107;29;20457;-86
2022/05/10 21:52:03;;;;;;;13.50;6.88;;;;;;;;;;4850295;29;20121;-86
2022/05/10 22:28:41;;;;;;;12.90;6.80;;;;;;;;;;4851550;29;20550;-85
2022/05/10 22:32:48;;;;;;;10.80;6.28;;;;;;;;;;4862388;29;20394;-85
2022/05/10 22:35:51;;;;;;;11.32;6.43;;;;;;;;;;4855375;29;20105;-86
2022/05/10 22:38:59;;;;;;;10.43;6.43;;;;;;;;;;4868902;29;20069;-86
2022/05/10 22:42:20;;;;;;;15.18;6.20;;;;;;;;;;4850616;29;20061;-85
2022/05/10 22:46:35;;;;;;;14.07;6.68;;;;;;;;;;4867169;29;20704;-87
2022/05/10 22:56:02;;;;;;;13.88;6.80;;;;;;;;;;4742444;30;20678;-85
2022/05/10 23:02:44;;;;;;;12.65;6.95;;;;;;;;;;4977347;28;20046;-91
2022/05/10 23:05:14;;;;;;;13.07;7.60;;;;;;;;;;4980612;28;20060;-91
2022/05/10 23:07:42;;;;;;;14.13;7.45;;;;;;;;;;5032288;23;20050;-83
2022/05/10 23:10:10;;;;;;;13.07;6.90;;;;;;;;;;5017509;28;20058;-82
2022/05/10 23:12:38;;;;;;;11.57;7.28;;;;;;;;;;4987006;28;20054;-82
2022/05/10 23:15:07;;;;;;;11.65;7.68;;;;;;;;;;5017039;28;20074;-83
2022/05/10 23:17:44;;;;;;;13.30;7.03;;;;;;;;;;4982886;28;20117;-84
2022/05/10 23:20:12;;;;;;;15.00;7.97;;;;;;;;;;5002431;28;20131;-83
2022/05/10 23:22:41;;;;;;;12.68;7.45;;;;;;;;;;4979907;28;20141;-81
2022/05/10 23:40:30;;;;;;;12.77;7.53;;;;;;;;;;5000337;28;20042;-87
2022/05/10 23:54:23;;;;;;;15.32;8.85;;;;;;;;;;4937984;29;20047;-86
